sensor_id;sensor_type;location;lat;lon;timestamp;P1;durP1;ratioP1;P2;durP2;ratioP2
69542;SDS011;56762;49.494;11.768;2022-08-11T00:02:23;5.95;;;2.60;;
69542;SDS011;56762;49.494;11.768;2022-08-11T00:04:56;5.60;;;2.50;;
69542;SDS011;56762;49.494;11.768;2022-08-11T00:07:30;4.60;;;2.50;;
69542;SDS011;56762;49.494;11.768;2022-08-11T00:09:58;3.83;;;2.30;;
69542;SDS011;56762;49.494;11.768;2022-08-11T00:12:27;3.92;;;2.60;;
69542;SDS011;56762;49.494;11.768;2022-08-11T00:14:57;4.57;;;2.70;;
69542;SDS011;56762;49.494;11.768;2022-08-11T00:17:27;3.85;;;2.45;;
69542;SDS011;56762;49.494;11.768;2022-08-11T00:20:03;3.60;;;2.63;;
69542;SDS011;56762;49.494;11.768;2022-08-11T00:22:41;4.57;;;2.50;;
69542;SDS011;56762;49.494;11.768;2022-08-11T00:25:12;4.20;;;2.58;;
69542;SDS011;56762;49.494;11.768;2022-08-11T00:27:42;4.53;;;2.50;;
69542;SDS011;56762;49.494;11.768;2022-08-11T00:30:11;3.88;;;2.70;;
69542;SDS011;56762;49.494;11.768;2022-08-11T00:32:41;4.03;;;2.87;;
69542;SDS011;56762;49.494;11.768;2022-08-11T00:35:14;3.58;;;2.40;;
69542;SDS011;56762;49.494;11.768;2022-08-11T00:38:04;4.57;;;2.63;;
69542;SDS011;56762;49.494;11.768;2022-08-11T00:40:35;3.67;;;2.20;;
69542;SDS011;56762;49.494;11.768;2022-08-11T00:43:12;5.35;;;2.53;;
69542;SDS011;56762;49.494;11.768;2022-08-11T00:45:54;4.17;;;2.70;;
69542;SDS011;56762;49.494;11.768;2022-08-11T00:48:44;4.05;;;2.65;;
69542;SDS011;56762;49.494;11.768;2022-08-11T00:51:22;4.20;;;2.95;;
69542;SDS011;56762;49.494;11.768;2022-08-11T00:54:32;4.30;;;2.60;;
69542;SDS011;56762;49.494;11.768;2022-08-11T01:00:11;4.37;;;2.90;;
69542;SDS011;56762;49.494;11.768;2022-08-11T01:02:46;3.40;;;2.22;;
69542;SDS011;56762;49.494;11.768;2022-08-11T01:05:37;3.72;;;2.83;;
69542;SDS011;56762;49.494;11.768;2022-08-11T01:08:36;4.00;;;2.78;;
69542;SDS011;56762;49.494;11.768;2022-08-11T01:15:27;3.40;;;2.40;;
69542;SDS011;56762;49.494;11.768;2022-08-11T01:18:35;4.13;;;2.78;;
69542;SDS011;56762;49.494;11.768;2022-08-11T01:21:43;4.28;;;2.50;;
69542;SDS011;56762;49.494;11.768;2022-08-11T01:24:56;4.85;;;2.50;;
69542;SDS011;56762;49.494;11.768;2022-08-11T01:37:34;5.35;;;2.80;;
69542;SDS011;56762;49.494;11.768;2022-08-11T01:46:55;4.10;;;2.37;;
69542;SDS011;56762;49.494;11.768;2022-08-11T01:49:34;3.40;;;2.65;;
69542;SDS011;56762;49.494;11.768;2022-08-11T01:52:33;3.83;;;2.90;;
69542;SDS011;56762;49.494;11.768;2022-08-11T01:55:11;4.78;;;2.80;;
69542;SDS011;56762;49.494;11.768;2022-08-11T01:57:46;5.32;;;2.58;;
69542;SDS011;56762;49.494;11.768;2022-08-11T02:00:20;6.00;;;2.73;;
69542;SDS011;56762;49.494;11.768;2022-08-11T02:02:56;3.80;;;2.45;;
69542;SDS011;56762;49.494;11.768;2022-08-11T02:05:36;3.05;;;2.33;;
69542;SDS011;56762;49.494;11.768;2022-08-11T02:08:22;4.50;;;2.45;;
69542;SDS011;56762;49.494;11.768;2022-08-11T02:11:03;4.03;;;2.90;;
69542;SDS011;56762;49.494;11.768;2022-08-11T02:14:14;3.80;;;2.57;;
69542;SDS011;56762;49.494;11.768;2022-08-11T02:16:49;3.58;;;2.72;;
69542;SDS011;56762;49.494;11.768;2022-08-11T02:19:23;4.03;;;2.40;;
69542;SDS011;56762;49.494;11.768;2022-08-11T02:22:18;4.05;;;2.30;;
69542;SDS011;56762;49.494;11.768;2022-08-11T02:25:19;3.53;;;2.45;;
69542;SDS011;56762;49.494;11.768;2022-08-11T02:27:52;4.50;;;2.83;;
69542;SDS011;56762;49.494;11.768;2022-08-11T02:30:30;3.90;;;2.63;;
69542;SDS011;56762;49.494;11.768;2022-08-11T02:33:07;3.28;;;2.40;;
69542;SDS011;56762;49.494;11.768;2022-08-11T02:36:00;5.35;;;2.80;;
69542;SDS011;56762;49.494;11.768;2022-08-11T02:38:34;6.63;;;2.90;;
69542;SDS011;56762;49.494;11.768;2022-08-11T02:41:13;4.53;;;3.00;;
69542;SDS011;56762;49.494;11.768;2022-08-11T02:44:09;4.00;;;2.47;;
69542;SDS011;56762;49.494;11.768;2022-08-11T02:46:50;3.72;;;2.72;;
69542;SDS011;56762;49.494;11.768;2022-08-11T02:49:27;3.70;;;2.47;;
69542;SDS011;56762;49.494;11.768;2022-08-11T02:52:49;5.85;;;2.80;;
69542;SDS011;56762;49.494;11.768;2022-08-11T02:55:26;4.20;;;2.70;;
69542;SDS011;56762;49.494;11.768;2022-08-11T02:58:25;3.47;;;2.45;;
69542;SDS011;56762;49.494;11.768;2022-08-11T03:01:02;3.65;;;2.83;;
69542;SDS011;56762;49.494;11.768;2022-08-11T03:03:38;3.33;;;2.35;;
69542;SDS011;56762;49.494;11.768;2022-08-11T03:06:20;3.90;;;2.67;;
69542;SDS011;56762;49.494;11.768;2022-08-11T03:08:58;4.13;;;2.90;;
69542;SDS011;56762;49.494;11.768;2022-08-11T03:11:41;5.07;;;2.60;;
69542;SDS011;56762;49.494;11.768;2022-08-11T03:14:36;5.35;;;2.88;;
69542;SDS011;56762;49.494;11.768;2022-08-11T03:17:35;4.57;;;2.70;;
69542;SDS011;56762;49.494;11.768;2022-08-11T03:20:13;3.78;;;2.83;;
69542;SDS011;56762;49.494;11.768;2022-08-11T03:22:49;4.83;;;2.87;;
69542;SDS011;56762;49.494;11.768;2022-08-11T03:25:26;5.03;;;2.95;;
69542;SDS011;56762;49.494;11.768;2022-08-11T03:28:02;4.47;;;3.03;;
69542;SDS011;56762;49.494;11.768;2022-08-11T03:34:25;4.15;;;2.70;;
69542;SDS011;56762;49.494;11.768;2022-08-11T03:40:42;5.88;;;2.88;;
69542;SDS011;56762;49.494;11.768;2022-08-11T03:47:14;4.32;;;3.05;;
69542;SDS011;56762;49.494;11.768;2022-08-11T03:49:59;4.47;;;2.88;;
69542;SDS011;56762;49.494;11.768;2022-08-11T03:52:37;4.60;;;2.70;;
69542;SDS011;56762;49.494;11.768;2022-08-11T03:55:22;5.10;;;2.83;;
69542;SDS011;56762;49.494;11.768;2022-08-11T04:10:34;6.97;;;3.47;;
69542;SDS011;56762;49.494;11.768;2022-08-11T04:16:48;3.60;;;2.90;;
69542;SDS011;56762;49.494;11.768;2022-08-11T04:25:35;3.95;;;2.85;;
69542;SDS011;56762;49.494;11.768;2022-08-11T04:28:37;4.78;;;3.08;;
69542;SDS011;56762;49.494;11.768;2022-08-11T04:31:29;4.45;;;3.13;;
69542;SDS011;56762;49.494;11.768;2022-08-11T04:40:53;4.00;;;2.55;;
69542;SDS011;56762;49.494;11.768;2022-08-11T04:44:06;4.00;;;2.78;;
69542;SDS011;56762;49.494;11.768;2022-08-11T04:50:34;4.13;;;3.05;;
69542;SDS011;56762;49.494;11.768;2022-08-11T04:53:44;7.43;;;3.17;;
69542;SDS011;56762;49.494;11.768;2022-08-11T04:56:40;4.95;;;3.05;;
69542;SDS011;56762;49.494;11.768;2022-08-11T04:59:39;5.75;;;2.75;;
69542;SDS011;56762;49.494;11.768;2022-08-11T05:02:43;6.20;;;3.53;;
69542;SDS011;56762;49.494;11.768;2022-08-11T05:05:34;5.25;;;3.03;;
69542;SDS011;56762;49.494;11.768;2022-08-11T05:11:32;4.60;;;2.65;;
69542;SDS011;56762;49.494;11.768;2022-08-11T05:14:22;6.05;;;2.40;;
69542;SDS011;56762;49.494;11.768;2022-08-11T05:17:15;4.95;;;2.60;;
69542;SDS011;56762;49.494;11.768;2022-08-11T05:20:10;4.95;;;2.60;;
69542;SDS011;56762;49.494;11.768;2022-08-11T05:22:57;3.80;;;2.70;;
69542;SDS011;56762;49.494;11.768;2022-08-11T05:25:48;4.65;;;2.60;;
69542;SDS011;56762;49.494;11.768;2022-08-11T05:28:59;3.67;;;2.67;;
69542;SDS011;56762;49.494;11.768;2022-08-11T05:32:02;3.75;;;2.60;;
69542;SDS011;56762;49.494;11.768;2022-08-11T05:34:50;3.70;;;2.50;;
69542;SDS011;56762;49.494;11.768;2022-08-11T05:37:21;3.07;;;1.90;;
69542;SDS011;56762;49.494;11.768;2022-08-11T05:39:55;3.60;;;2.25;;
69542;SDS011;56762;49.494;11.768;2022-08-11T05:42:47;4.43;;;2.53;;
69542;SDS011;56762;49.494;11.768;2022-08-11T05:45:34;3.50;;;2.22;;
69542;SDS011;56762;49.494;11.768;2022-08-11T05:48:32;4.72;;;2.30;;
69542;SDS011;56762;49.494;11.768;2022-08-11T05:51:19;4.30;;;2.37;;
69542;SDS011;56762;49.494;11.768;2022-08-11T05:54:20;3.10;;;2.00;;
69542;SDS011;56762;49.494;11.768;2022-08-11T05:57:06;3.45;;;2.30;;
69542;SDS011;56762;49.494;11.768;2022-08-11T05:59:58;4.15;;;2.15;;
69542;SDS011;56762;49.494;11.768;2022-08-11T06:02:27;5.65;;;2.50;;
69542;SDS011;56762;49.494;11.768;2022-08-11T06:08:09;8.38;;;2.72;;
69542;SDS011;56762;49.494;11.768;2022-08-11T06:14:19;4.70;;;2.58;;
69542;SDS011;56762;49.494;11.768;2022-08-11T06:16:49;5.05;;;2.65;;
69542;SDS011;56762;49.494;11.768;2022-08-11T06:19:19;3.90;;;2.40;;
69542;SDS011;56762;49.494;11.768;2022-08-11T06:21:51;3.60;;;2.30;;
69542;SDS011;56762;49.494;11.768;2022-08-11T06:24:19;3.60;;;2.60;;
69542;SDS011;56762;49.494;11.768;2022-08-11T06:26:49;3.75;;;2.13;;
69542;SDS011;56762;49.494;11.768;2022-08-11T06:29:44;4.93;;;2.60;;
69542;SDS011;56762;49.494;11.768;2022-08-11T06:32:22;3.30;;;2.07;;
69542;SDS011;56762;49.494;11.768;2022-08-11T06:34:57;3.55;;;2.30;;
69542;SDS011;56762;49.494;11.768;2022-08-11T06:37:43;3.80;;;2.22;;
69542;SDS011;56762;49.494;11.768;2022-08-11T06:40:30;3.05;;;2.22;;
69542;SDS011;56762;49.494;11.768;2022-08-11T06:43:05;5.10;;;2.58;;
69542;SDS011;56762;49.494;11.768;2022-08-11T06:45:39;3.83;;;2.50;;
69542;SDS011;56762;49.494;11.768;2022-08-11T06:48:14;3.83;;;2.42;;
69542;SDS011;56762;49.494;11.768;2022-08-11T06:50:47;4.57;;;2.20;;
69542;SDS011;56762;49.494;11.768;2022-08-11T06:53:35;3.30;;;2.08;;
69542;SDS011;56762;49.494;11.768;2022-08-11T06:56:27;4.15;;;2.13;;
69542;SDS011;56762;49.494;11.768;2022-08-11T06:59:36;3.23;;;2.00;;
69542;SDS011;56762;49.494;11.768;2022-08-11T07:02:36;4.18;;;2.25;;
69542;SDS011;56762;49.494;11.768;2022-08-11T07:05:09;5.13;;;2.35;;
69542;SDS011;56762;49.494;11.768;2022-08-11T07:11:14;3.83;;;2.38;;
69542;SDS011;56762;49.494;11.768;2022-08-11T07:14:29;5.13;;;2.13;;
69542;SDS011;56762;49.494;11.768;2022-08-11T07:17:16;3.30;;;2.25;;
69542;SDS011;56762;49.494;11.768;2022-08-11T07:19:46;3.25;;;2.40;;
69542;SDS011;56762;49.494;11.768;2022-08-11T07:22:35;5.15;;;2.50;;
69542;SDS011;56762;49.494;11.768;2022-08-11T07:25:30;3.67;;;2.05;;
69542;SDS011;56762;49.494;11.768;2022-08-11T07:28:22;3.20;;;2.00;;
69542;SDS011;56762;49.494;11.768;2022-08-11T07:31:09;4.65;;;2.25;;
69542;SDS011;56762;49.494;11.768;2022-08-11T07:33:45;5.38;;;2.20;;
69542;SDS011;56762;49.494;11.768;2022-08-11T07:36:36;3.55;;;2.15;;
69542;SDS011;56762;49.494;11.768;2022-08-11T07:39:07;4.00;;;2.30;;
69542;SDS011;56762;49.494;11.768;2022-08-11T07:41:40;3.60;;;1.97;;
69542;SDS011;56762;49.494;11.768;2022-08-11T07:44:10;2.85;;;2.00;;
69542;SDS011;56762;49.494;11.768;2022-08-11T07:46:39;3.22;;;1.90;;
69542;SDS011;56762;49.494;11.768;2022-08-11T07:49:26;4.35;;;2.35;;
69542;SDS011;56762;49.494;11.768;2022-08-11T07:52:12;4.10;;;1.90;;
69542;SDS011;56762;49.494;11.768;2022-08-11T07:54:58;4.03;;;2.13;;
69542;SDS011;56762;49.494;11.768;2022-08-11T07:57:29;4.22;;;2.20;;
69542;SDS011;56762;49.494;11.768;2022-08-11T08:00:37;5.30;;;2.30;;
69542;SDS011;56762;49.494;11.768;2022-08-11T08:03:28;3.80;;;2.28;;
69542;SDS011;56762;49.494;11.768;2022-08-11T08:06:20;3.85;;;2.00;;
69542;SDS011;56762;49.494;11.768;2022-08-11T08:09:05;3.57;;;1.90;;
69542;SDS011;56762;49.494;11.768;2022-08-11T08:11:52;2.60;;;1.70;;
69542;SDS011;56762;49.494;11.768;2022-08-11T08:14:38;4.18;;;1.92;;
69542;SDS011;56762;49.494;11.768;2022-08-11T08:17:27;4.53;;;2.30;;
69542;SDS011;56762;49.494;11.768;2022-08-11T08:20:35;5.05;;;1.90;;
69542;SDS011;56762;49.494;11.768;2022-08-11T08:23:05;3.43;;;1.47;;
69542;SDS011;56762;49.494;11.768;2022-08-11T08:25:34;3.85;;;1.60;;
69542;SDS011;56762;49.494;11.768;2022-08-11T08:28:05;3.80;;;2.10;;
69542;SDS011;56762;49.494;11.768;2022-08-11T08:30:35;3.95;;;1.92;;
69542;SDS011;56762;49.494;11.768;2022-08-11T08:33:14;3.72;;;2.05;;
69542;SDS011;56762;49.494;11.768;2022-08-11T08:35:45;4.93;;;1.70;;
69542;SDS011;56762;49.494;11.768;2022-08-11T08:38:21;4.18;;;2.10;;
69542;SDS011;56762;49.494;11.768;2022-08-11T08:40:49;5.85;;;2.80;;
69542;SDS011;56762;49.494;11.768;2022-08-11T08:43:21;3.88;;;1.77;;
69542;SDS011;56762;49.494;11.768;2022-08-11T08:45:51;2.92;;;1.70;;
69542;SDS011;56762;49.494;11.768;2022-08-11T08:48:23;3.00;;;1.60;;
69542;SDS011;56762;49.494;11.768;2022-08-11T08:50:54;4.05;;;1.70;;
69542;SDS011;56762;49.494;11.768;2022-08-11T08:53:47;3.70;;;1.52;;
69542;SDS011;56762;49.494;11.768;2022-08-11T08:56:24;2.40;;;1.40;;
69542;SDS011;56762;49.494;11.768;2022-08-11T08:58:54;5.07;;;2.20;;
69542;SDS011;56762;49.494;11.768;2022-08-11T09:01:25;4.33;;;1.97;;
69542;SDS011;56762;49.494;11.768;2022-08-11T09:03:58;5.10;;;2.40;;
69542;SDS011;56762;49.494;11.768;2022-08-11T09:06:36;3.58;;;1.88;;
69542;SDS011;56762;49.494;11.768;2022-08-11T09:09:06;4.22;;;1.55;;
69542;SDS011;56762;49.494;11.768;2022-08-11T09:11:35;4.90;;;1.70;;
69542;SDS011;56762;49.494;11.768;2022-08-11T09:14:20;4.40;;;1.63;;
69542;SDS011;56762;49.494;11.768;2022-08-11T09:16:50;5.32;;;2.10;;
69542;SDS011;56762;49.494;11.768;2022-08-11T09:19:21;6.60;;;2.80;;
69542;SDS011;56762;49.494;11.768;2022-08-11T09:21:50;5.45;;;2.83;;
69542;SDS011;56762;49.494;11.768;2022-08-11T09:24:39;3.60;;;1.80;;
69542;SDS011;56762;49.494;11.768;2022-08-11T09:27:36;7.60;;;2.43;;
69542;SDS011;56762;49.494;11.768;2022-08-11T09:30:15;8.43;;;2.28;;
69542;SDS011;56762;49.494;11.768;2022-08-11T09:32:45;5.68;;;2.65;;
69542;SDS011;56762;49.494;11.768;2022-08-11T09:41:50;3.03;;;1.20;;
69542;SDS011;56762;49.494;11.768;2022-08-11T09:44:28;2.35;;;1.17;;
69542;SDS011;56762;49.494;11.768;2022-08-11T09:47:18;3.28;;;1.50;;
69542;SDS011;56762;49.494;11.768;2022-08-11T09:49:49;4.40;;;1.88;;
69542;SDS011;56762;49.494;11.768;2022-08-11T09:52:21;5.25;;;2.03;;
69542;SDS011;56762;49.494;11.768;2022-08-11T09:54:51;2.63;;;1.13;;
69542;SDS011;56762;49.494;11.768;2022-08-11T09:57:21;3.78;;;1.70;;
69542;SDS011;56762;49.494;11.768;2022-08-11T10:00:09;6.32;;;2.15;;
69542;SDS011;56762;49.494;11.768;2022-08-11T10:02:41;7.00;;;2.95;;
69542;SDS011;56762;49.494;11.768;2022-08-11T10:05:10;2.53;;;1.38;;
69542;SDS011;56762;49.494;11.768;2022-08-11T10:07:59;3.07;;;1.03;;
69542;SDS011;56762;49.494;11.768;2022-08-11T10:10:27;2.78;;;1.20;;
69542;SDS011;56762;49.494;11.768;2022-08-11T10:13:02;2.85;;;1.80;;
69542;SDS011;56762;49.494;11.768;2022-08-11T10:15:52;3.50;;;1.52;;
69542;SDS011;56762;49.494;11.768;2022-08-11T10:18:41;6.30;;;2.47;;
69542;SDS011;56762;49.494;11.768;2022-08-11T10:21:22;4.97;;;2.50;;
69542;SDS011;56762;49.494;11.768;2022-08-11T10:23:55;4.85;;;1.60;;
69542;SDS011;56762;49.494;11.768;2022-08-11T10:26:43;3.97;;;2.50;;
69542;SDS011;56762;49.494;11.768;2022-08-11T10:29:27;3.47;;;1.83;;
69542;SDS011;56762;49.494;11.768;2022-08-11T10:32:30;5.28;;;2.25;;
69542;SDS011;56762;49.494;11.768;2022-08-11T10:35:25;4.70;;;1.90;;
69542;SDS011;56762;49.494;11.768;2022-08-11T10:37:53;2.97;;;1.20;;
69542;SDS011;56762;49.494;11.768;2022-08-11T10:40:35;2.67;;;1.10;;
69542;SDS011;56762;49.494;11.768;2022-08-11T10:43:05;2.70;;;1.40;;
69542;SDS011;56762;49.494;11.768;2022-08-11T10:45:40;2.53;;;1.30;;
69542;SDS011;56762;49.494;11.768;2022-08-11T10:48:29;3.40;;;1.23;;
69542;SDS011;56762;49.494;11.768;2022-08-11T10:51:03;2.25;;;1.10;;
69542;SDS011;56762;49.494;11.768;2022-08-11T10:54:03;3.40;;;1.10;;
69542;SDS011;56762;49.494;11.768;2022-08-11T10:56:50;1.85;;;1.10;;
69542;SDS011;56762;49.494;11.768;2022-08-11T10:59:38;2.97;;;1.50;;
69542;SDS011;56762;49.494;11.768;2022-08-11T11:02:08;3.83;;;1.10;;
69542;SDS011;56762;49.494;11.768;2022-08-11T11:04:45;3.28;;;1.20;;
69542;SDS011;56762;49.494;11.768;2022-08-11T11:07:25;2.58;;;1.25;;
69542;SDS011;56762;49.494;11.768;2022-08-11T11:10:09;3.17;;;1.50;;
69542;SDS011;56762;49.494;11.768;2022-08-11T11:12:40;3.17;;;1.33;;
69542;SDS011;56762;49.494;11.768;2022-08-11T11:15:29;2.20;;;1.00;;
69542;SDS011;56762;49.494;11.768;2022-08-11T11:18:17;2.58;;;1.13;;
69542;SDS011;56762;49.494;11.768;2022-08-11T11:20:47;5.28;;;1.75;;
69542;SDS011;56762;49.494;11.768;2022-08-11T11:23:22;2.20;;;1.00;;
69542;SDS011;56762;49.494;11.768;2022-08-11T11:32:10;2.10;;;1.10;;
69542;SDS011;56762;49.494;11.768;2022-08-11T11:34:53;3.53;;;1.33;;
69542;SDS011;56762;49.494;11.768;2022-08-11T11:37:34;2.70;;;1.13;;
69542;SDS011;56762;49.494;11.768;2022-08-11T11:40:07;3.42;;;1.70;;
69542;SDS011;56762;49.494;11.768;2022-08-11T11:42:37;3.30;;;1.20;;
69542;SDS011;56762;49.494;11.768;2022-08-11T11:45:07;3.20;;;1.20;;
69542;SDS011;56762;49.494;11.768;2022-08-11T11:47:51;3.25;;;1.10;;
69542;SDS011;56762;49.494;11.768;2022-08-11T11:50:21;3.97;;;1.45;;
69542;SDS011;56762;49.494;11.768;2022-08-11T11:52:57;3.78;;;1.50;;
69542;SDS011;56762;49.494;11.768;2022-08-11T11:55:26;1.93;;;1.00;;
69542;SDS011;56762;49.494;11.768;2022-08-11T11:57:56;2.85;;;1.20;;
69542;SDS011;56762;49.494;11.768;2022-08-11T12:00:44;2.53;;;1.38;;
69542;SDS011;56762;49.494;11.768;2022-08-11T12:03:32;2.38;;;1.20;;
69542;SDS011;56762;49.494;11.768;2022-08-11T12:06:08;2.13;;;1.40;;
69542;SDS011;56762;49.494;11.768;2022-08-11T12:08:41;2.33;;;1.10;;
69542;SDS011;56762;49.494;11.768;2022-08-11T12:11:12;4.13;;;1.17;;
69542;SDS011;56762;49.494;11.768;2022-08-11T12:17:45;1.50;;;0.93;;
69542;SDS011;56762;49.494;11.768;2022-08-11T12:20:19;2.90;;;1.50;;
69542;SDS011;56762;49.494;11.768;2022-08-11T12:22:59;3.27;;;1.20;;
69542;SDS011;56762;49.494;11.768;2022-08-11T12:25:45;4.30;;;1.23;;
69542;SDS011;56762;49.494;11.768;2022-08-11T12:28:50;2.97;;;1.23;;
69542;SDS011;56762;49.494;11.768;2022-08-11T12:31:18;2.25;;;1.02;;
69542;SDS011;56762;49.494;11.768;2022-08-11T12:33:51;3.58;;;1.40;;
69542;SDS011;56762;49.494;11.768;2022-08-11T12:36:20;2.73;;;1.20;;
69542;SDS011;56762;49.494;11.768;2022-08-11T12:38:49;2.25;;;1.20;;
69542;SDS011;56762;49.494;11.768;2022-08-11T12:41:18;4.32;;;1.80;;
69542;SDS011;56762;49.494;11.768;2022-08-11T12:44:05;6.50;;;2.47;;
69542;SDS011;56762;49.494;11.768;2022-08-11T12:54:18;3.55;;;1.55;;
69542;SDS011;56762;49.494;11.768;2022-08-11T12:56:53;2.33;;;1.40;;
69542;SDS011;56762;49.494;11.768;2022-08-11T13:00:03;2.80;;;1.50;;
69542;SDS011;56762;49.494;11.768;2022-08-11T13:02:50;3.60;;;1.30;;
69542;SDS011;56762;49.494;11.768;2022-08-11T13:05:35;3.17;;;1.30;;
69542;SDS011;56762;49.494;11.768;2022-08-11T13:08:10;2.67;;;1.42;;
69542;SDS011;56762;49.494;11.768;2022-08-11T13:10:42;2.88;;;1.30;;
69542;SDS011;56762;49.494;11.768;2022-08-11T13:13:28;5.32;;;2.30;;
69542;SDS011;56762;49.494;11.768;2022-08-11T13:16:17;7.00;;;3.30;;
69542;SDS011;56762;49.494;11.768;2022-08-11T13:18:46;1.83;;;1.30;;
69542;SDS011;56762;49.494;11.768;2022-08-11T13:21:15;2.97;;;1.40;;
69542;SDS011;56762;49.494;11.768;2022-08-11T13:23:46;2.83;;;1.42;;
69542;SDS011;56762;49.494;11.768;2022-08-11T13:26:33;4.10;;;1.80;;
69542;SDS011;56762;49.494;11.768;2022-08-11T13:29:18;3.40;;;1.50;;
69542;SDS011;56762;49.494;11.768;2022-08-11T13:31:48;2.60;;;1.20;;
69542;SDS011;56762;49.494;11.768;2022-08-11T13:34:17;3.25;;;1.27;;
69542;SDS011;56762;49.494;11.768;2022-08-11T13:36:46;1.92;;;1.20;;
69542;SDS011;56762;49.494;11.768;2022-08-11T13:39:17;11.05;;;4.15;;
69542;SDS011;56762;49.494;11.768;2022-08-11T13:41:50;6.47;;;2.50;;
69542;SDS011;56762;49.494;11.768;2022-08-11T13:44:22;4.40;;;1.20;;
69542;SDS011;56762;49.494;11.768;2022-08-11T13:46:53;3.10;;;1.02;;
69542;SDS011;56762;49.494;11.768;2022-08-11T13:49:24;1.92;;;0.90;;
69542;SDS011;56762;49.494;11.768;2022-08-11T13:51:53;2.38;;;1.35;;
69542;SDS011;56762;49.494;11.768;2022-08-11T13:54:22;2.70;;;1.40;;
69542;SDS011;56762;49.494;11.768;2022-08-11T13:56:55;3.17;;;1.20;;
69542;SDS011;56762;49.494;11.768;2022-08-11T13:59:26;1.90;;;1.00;;
69542;SDS011;56762;49.494;11.768;2022-08-11T14:01:58;2.60;;;1.27;;
69542;SDS011;56762;49.494;11.768;2022-08-11T14:04:49;8.48;;;2.88;;
69542;SDS011;56762;49.494;11.768;2022-08-11T14:07:20;4.93;;;1.80;;
69542;SDS011;56762;49.494;11.768;2022-08-11T14:09:52;4.03;;;1.17;;
69542;SDS011;56762;49.494;11.768;2022-08-11T14:12:26;5.60;;;2.40;;
69542;SDS011;56762;49.494;11.768;2022-08-11T14:15:15;2.38;;;1.40;;
69542;SDS011;56762;49.494;11.768;2022-08-11T14:17:47;3.05;;;1.58;;
69542;SDS011;56762;49.494;11.768;2022-08-11T14:20:19;4.38;;;1.63;;
69542;SDS011;56762;49.494;11.768;2022-08-11T14:23:06;2.97;;;1.60;;
69542;SDS011;56762;49.494;11.768;2022-08-11T14:25:36;3.55;;;1.35;;
69542;SDS011;56762;49.494;11.768;2022-08-11T14:28:30;5.55;;;2.33;;
69542;SDS011;56762;49.494;11.768;2022-08-11T14:31:09;4.75;;;1.70;;
69542;SDS011;56762;49.494;11.768;2022-08-11T14:33:38;5.30;;;2.45;;
69542;SDS011;56762;49.494;11.768;2022-08-11T14:36:24;4.23;;;1.40;;
69542;SDS011;56762;49.494;11.768;2022-08-11T14:38:54;5.22;;;1.77;;
69542;SDS011;56762;49.494;11.768;2022-08-11T14:41:23;3.08;;;1.33;;
69542;SDS011;56762;49.494;11.768;2022-08-11T14:44:33;3.08;;;1.60;;
69542;SDS011;56762;49.494;11.768;2022-08-11T14:47:20;2.97;;;1.25;;
69542;SDS011;56762;49.494;11.768;2022-08-11T14:49:52;2.97;;;1.20;;
69542;SDS011;56762;49.494;11.768;2022-08-11T14:52:37;2.25;;;1.30;;
69542;SDS011;56762;49.494;11.768;2022-08-11T14:55:10;3.05;;;1.13;;
69542;SDS011;56762;49.494;11.768;2022-08-11T14:57:57;2.15;;;1.27;;
69542;SDS011;56762;49.494;11.768;2022-08-11T15:00:27;2.65;;;1.40;;
69542;SDS011;56762;49.494;11.768;2022-08-11T15:02:55;1.90;;;1.17;;
69542;SDS011;56762;49.494;11.768;2022-08-11T15:05:38;3.83;;;1.52;;
69542;SDS011;56762;49.494;11.768;2022-08-11T15:08:24;2.92;;;1.73;;
69542;SDS011;56762;49.494;11.768;2022-08-11T15:11:07;4.10;;;1.55;;
69542;SDS011;56762;49.494;11.768;2022-08-11T15:13:58;2.33;;;1.48;;
69542;SDS011;56762;49.494;11.768;2022-08-11T15:16:28;4.47;;;1.67;;
69542;SDS011;56762;49.494;11.768;2022-08-11T15:19:13;6.38;;;2.65;;
69542;SDS011;56762;49.494;11.768;2022-08-11T15:21:45;3.13;;;1.40;;
69542;SDS011;56762;49.494;11.768;2022-08-11T15:24:30;2.47;;;1.42;;
69542;SDS011;56762;49.494;11.768;2022-08-11T15:27:01;4.82;;;2.00;;
69542;SDS011;56762;49.494;11.768;2022-08-11T15:29:49;3.80;;;2.00;;
69542;SDS011;56762;49.494;11.768;2022-08-11T15:32:58;3.83;;;1.50;;
69542;SDS011;56762;49.494;11.768;2022-08-11T15:35:46;2.30;;;1.40;;
69542;SDS011;56762;49.494;11.768;2022-08-11T15:38:33;3.72;;;1.77;;
69542;SDS011;56762;49.494;11.768;2022-08-11T15:41:06;5.95;;;1.30;;
69542;SDS011;56762;49.494;11.768;2022-08-11T15:43:53;3.47;;;1.60;;
69542;SDS011;56762;49.494;11.768;2022-08-11T15:46:40;4.97;;;2.20;;
69542;SDS011;56762;49.494;11.768;2022-08-11T15:49:12;4.50;;;2.33;;
69542;SDS011;56762;49.494;11.768;2022-08-11T15:51:48;2.67;;;1.42;;
69542;SDS011;56762;49.494;11.768;2022-08-11T15:54:27;2.50;;;1.40;;
69542;SDS011;56762;49.494;11.768;2022-08-11T15:56:57;25.40;;;2.17;;
69542;SDS011;56762;49.494;11.768;2022-08-11T15:59:28;4.70;;;1.30;;
69542;SDS011;56762;49.494;11.768;2022-08-11T16:02:17;2.55;;;1.48;;
69542;SDS011;56762;49.494;11.768;2022-08-11T16:05:09;3.40;;;1.48;;
69542;SDS011;56762;49.494;11.768;2022-08-11T16:07:59;6.40;;;2.20;;
69542;SDS011;56762;49.494;11.768;2022-08-11T16:10:29;10.50;;;4.83;;
69542;SDS011;56762;49.494;11.768;2022-08-11T16:12:59;6.03;;;2.17;;
69542;SDS011;56762;49.494;11.768;2022-08-11T16:15:44;4.85;;;2.25;;
69542;SDS011;56762;49.494;11.768;2022-08-11T16:18:33;5.65;;;2.60;;
69542;SDS011;56762;49.494;11.768;2022-08-11T16:21:11;6.20;;;2.47;;
69542;SDS011;56762;49.494;11.768;2022-08-11T16:24:00;7.40;;;2.30;;
69542;SDS011;56762;49.494;11.768;2022-08-11T16:26:32;4.78;;;2.35;;
69542;SDS011;56762;49.494;11.768;2022-08-11T16:29:24;7.60;;;2.80;;
69542;SDS011;56762;49.494;11.768;2022-08-11T16:31:53;4.60;;;1.58;;
69542;SDS011;56762;49.494;11.768;2022-08-11T16:34:40;3.20;;;1.60;;
69542;SDS011;56762;49.494;11.768;2022-08-11T16:37:29;2.20;;;1.30;;
69542;SDS011;56762;49.494;11.768;2022-08-11T16:40:17;2.25;;;1.27;;
69542;SDS011;56762;49.494;11.768;2022-08-11T16:42:48;5.10;;;1.90;;
69542;SDS011;56762;49.494;11.768;2022-08-11T16:45:37;3.03;;;1.83;;
69542;SDS011;56762;49.494;11.768;2022-08-11T16:48:25;3.88;;;1.90;;
69542;SDS011;56762;49.494;11.768;2022-08-11T16:51:03;4.43;;;1.80;;
69542;SDS011;56762;49.494;11.768;2022-08-11T16:53:33;5.93;;;3.00;;
69542;SDS011;56762;49.494;11.768;2022-08-11T16:56:24;3.42;;;1.45;;
69542;SDS011;56762;49.494;11.768;2022-08-11T16:58:56;6.13;;;2.03;;
69542;SDS011;56762;49.494;11.768;2022-08-11T17:01:40;2.15;;;1.10;;
69542;SDS011;56762;49.494;11.768;2022-08-11T17:04:14;3.03;;;1.30;;
69542;SDS011;56762;49.494;11.768;2022-08-11T17:07:05;2.85;;;1.40;;
69542;SDS011;56762;49.494;11.768;2022-08-11T17:10:10;2.63;;;1.42;;
69542;SDS011;56762;49.494;11.768;2022-08-11T17:13:20;5.40;;;1.75;;
69542;SDS011;56762;49.494;11.768;2022-08-11T17:15:53;3.08;;;1.38;;
69542;SDS011;56762;49.494;11.768;2022-08-11T17:18:42;4.17;;;1.93;;
69542;SDS011;56762;49.494;11.768;2022-08-11T17:21:20;7.18;;;2.58;;
69542;SDS011;56762;49.494;11.768;2022-08-11T17:23:54;10.15;;;4.35;;
69542;SDS011;56762;49.494;11.768;2022-08-11T17:26:28;7.00;;;3.42;;
69542;SDS011;56762;49.494;11.768;2022-08-11T17:29:13;5.45;;;2.10;;
69542;SDS011;56762;49.494;11.768;2022-08-11T17:31:42;5.93;;;2.63;;
69542;SDS011;56762;49.494;11.768;2022-08-11T17:34:28;2.15;;;1.50;;
69542;SDS011;56762;49.494;11.768;2022-08-11T17:37:14;3.42;;;1.58;;
69542;SDS011;56762;49.494;11.768;2022-08-11T17:39:42;4.13;;;1.90;;
69542;SDS011;56762;49.494;11.768;2022-08-11T17:42:13;2.55;;;1.20;;